MAPA DE AEROPUERTO

INFORMACIÓN METAR y TAF

METAR FOR LESO
ADDS - METARS form results

(1946 UTC 01 June 2020)
Data provider http://aviationweather.gov/metar/data/
 
METAR text: LESO 011930Z 29004KT 270V330 9999 FEW010 BKN015 21/18 Q1015
Conditions at: LESO (SAN SEBASTIAN/FU, ES) observed 1930 UTC 01 June 2020
Temperature: 21.0°C (70°F)
Dewpoint: 18.0°C (64°F) [RH = 83%]
Pressure (altimeter): 29.97 inches Hg (1015.0 mb)
Winds: from the WNW (290 degrees) at 5 MPH (4 knots; 2.1 m/s)
Visibility: 6 or more miles (10+ km)
Ceiling: 1500 feet AGL
Clouds: few clouds at 1000 feet AGL
broken clouds at 1500 feet AGL
Weather: no significant weather observed at this time

METAR text: LESO 011900Z 29005KT 250V340 9999 SCT013 21/18 Q1015
Conditions at: LESO (SAN SEBASTIAN/FU, ES) observed 1900 UTC 01 June 2020
Temperature: 21.0°C (70°F)
Dewpoint: 18.0°C (64°F) [RH = 83%]
Pressure (altimeter): 29.97 inches Hg (1015.0 mb)
Winds: from the WNW (290 degrees) at 6 MPH (5 knots; 2.6 m/s)
Visibility: 6 or more miles (10+ km)
Ceiling: at least 12,000 feet AGL
Clouds: scattered clouds at 1300 feet AGL
Weather: no significant weather observed at this time

Forecast for: LESO (SAN SEBASTIAN/FU, ES)
Text: TAF LESO 011700Z 0118/0218 VRB05KT 9999 FEW040 TX25/0215Z TN16/0205Z
Forecast period: 1800 UTC 01 June 2020 to 1800 UTC 02 June 2020
Forecast type: FROM: standard forecast or significant change
Winds: variable direction winds at 6 MPH (5 knots; 2.6 m/s)
Visibility: 6 or more miles 10+ km)
Ceiling: at least 12,000 feet AGL
Clouds: few clouds at 4000 feet AGL
Weather: no significant weather forecast for this period
Text: TEMPO 0212/0218 02010KT
Forecast period: 1200 to 1800 UTC 02 June 2020
Forecast type: TEMPORARY: The following changes expected for less than half the time period
Winds: from the NNE (20 degrees) at 12 MPH (10 knots; 5.1 m/s)
Visibility: missing
Ceiling: unknown
Clouds: missing
Weather: no significant weather forecast for this period